createdAt,value
2022-10-14T00:01:15.061Z,12.90
2022-10-14T00:03:43.432Z,14.38
2022-10-14T00:06:17.545Z,13.77
2022-10-14T00:08:47.362Z,14.30
2022-10-14T00:11:22.583Z,13.85
2022-10-14T00:13:51.103Z,13.05
2022-10-14T00:16:46.426Z,14.25
2022-10-14T00:21:44.201Z,14.38
2022-10-14T00:24:13.174Z,13.80
2022-10-14T00:26:41.189Z,13.62
2022-10-14T00:29:12.647Z,12.50
2022-10-14T00:31:40.363Z,11.88
2022-10-14T00:34:08.006Z,11.82
2022-10-14T00:36:35.391Z,11.57
2022-10-14T00:39:02.988Z,12.05
2022-10-14T00:41:33.445Z,11.32
2022-10-14T00:44:25.594Z,11.80
2022-10-14T00:46:53.733Z,12.05
2022-10-14T00:49:31.236Z,12.10
2022-10-14T00:52:01.169Z,13.38
2022-10-14T00:54:34.846Z,13.80
2022-10-14T00:57:02.906Z,13.45
2022-10-14T00:59:31.099Z,12.88
2022-10-14T01:01:58.458Z,13.88
2022-10-14T01:04:27.053Z,14.27
2022-10-14T01:07:00.441Z,13.45
2022-10-14T01:09:29.573Z,12.65
2022-10-14T01:15:05.154Z,13.02
2022-10-14T01:18:03.093Z,13.18
2022-10-14T01:21:08.341Z,12.57
2022-10-14T01:24:14.920Z,12.40
2022-10-14T01:27:19.477Z,12.37
2022-10-14T01:29:57.863Z,12.30
2022-10-14T01:32:49.891Z,12.63
2022-10-14T01:35:19.924Z,12.50
2022-10-14T01:38:01.208Z,11.82
2022-10-14T01:40:34.771Z,12.52
2022-10-14T01:43:04.393Z,12.10
2022-10-14T01:45:34.220Z,12.60
2022-10-14T01:48:02.663Z,13.93
2022-10-14T01:50:31.582Z,13.27
2022-10-14T01:53:02.808Z,13.95
2022-10-14T01:55:33.807Z,12.27
2022-10-14T01:58:01.671Z,12.73
2022-10-14T02:00:29.241Z,13.27
2022-10-14T02:03:01.866Z,12.15
2022-10-14T02:05:37.372Z,12.80
2022-10-14T02:08:19.406Z,11.63
2022-10-14T02:11:07.354Z,10.65
2022-10-14T02:13:51.113Z,10.73
2022-10-14T02:16:23.909Z,10.68
2022-10-14T02:19:02.315Z,10.05
2022-10-14T02:21:37.925Z,9.57
2022-10-14T02:24:38.347Z,11.23
2022-10-14T02:27:10.052Z,10.23
2022-10-14T02:29:38.647Z,10.65
2022-10-14T02:32:08.349Z,11.52
2022-10-14T02:34:37.162Z,11.60
2022-10-14T02:37:09.985Z,11.80
2022-10-14T02:39:43.895Z,11.48
2022-10-14T02:42:11.299Z,12.50
2022-10-14T02:44:38.932Z,12.73
2022-10-14T02:47:06.301Z,12.98
2022-10-14T02:49:33.640Z,13.00
2022-10-14T02:52:01.255Z,12.73
2022-10-14T02:54:28.629Z,12.10
2022-10-14T02:56:58.334Z,10.93
2022-10-14T02:59:25.974Z,11.30
2022-10-14T03:01:53.463Z,11.48
2022-10-14T03:04:21.303Z,10.52
2022-10-14T03:06:48.908Z,11.02
2022-10-14T03:09:16.462Z,10.20
2022-10-14T03:11:44.345Z,9.93
2022-10-14T03:14:12.291Z,10.48
2022-10-14T03:16:39.669Z,9.30
2022-10-14T03:19:07.047Z,9.82
2022-10-14T03:21:36.251Z,11.27
2022-10-14T03:24:03.689Z,10.52
2022-10-14T03:26:31.462Z,11.73
2022-10-14T03:28:59.218Z,12.68
2022-10-14T03:31:29.035Z,12.25
2022-10-14T03:33:57.822Z,13.02
2022-10-14T03:36:26.303Z,12.50
2022-10-14T03:38:53.884Z,13.65
2022-10-14T03:41:22.288Z,12.68
2022-10-14T03:43:50.015Z,12.00
2022-10-14T03:46:17.505Z,13.27
2022-10-14T03:48:44.904Z,12.20
2022-10-14T03:51:13.193Z,12.15
2022-10-14T03:53:42.300Z,11.38
2022-10-14T03:56:10.793Z,10.70
2022-10-14T03:58:38.423Z,10.30
2022-10-14T04:01:06.476Z,11.60
2022-10-14T04:03:34.327Z,10.88
2022-10-14T04:06:01.766Z,9.90
2022-10-14T04:08:29.469Z,10.13
2022-10-14T04:10:58.736Z,10.75
2022-10-14T04:13:27.365Z,10.30
2022-10-14T04:15:54.784Z,9.93
2022-10-14T04:18:22.622Z,10.85
2022-10-14T04:20:51.280Z,10.40
2022-10-14T04:23:19.918Z,9.70
2022-10-14T04:25:49.052Z,10.70
2022-10-14T04:28:16.564Z,10.77
2022-10-14T04:30:44.420Z,10.48
2022-10-14T04:33:13.337Z,11.32
2022-10-14T04:35:41.330Z,10.85
2022-10-14T04:38:11.043Z,10.00
2022-10-14T04:40:46.148Z,10.55
2022-10-14T04:43:13.847Z,10.73
2022-10-14T04:45:41.753Z,10.63
2022-10-14T04:48:09.870Z,12.65
2022-10-14T04:50:38.002Z,11.75
2022-10-14T04:53:13.883Z,12.10
2022-10-14T04:55:44.541Z,11.70
2022-10-14T04:58:12.967Z,10.57
2022-10-14T05:00:40.742Z,10.50
2022-10-14T05:03:08.887Z,11.35
2022-10-14T05:05:36.564Z,11.02
2022-10-14T05:08:04.620Z,12.80
2022-10-14T05:10:33.695Z,12.50
2022-10-14T05:13:02.376Z,13.40
2022-10-14T05:15:30.931Z,12.35
2022-10-14T05:17:58.614Z,10.15
2022-10-14T05:20:29.250Z,10.98
2022-10-14T05:22:56.972Z,11.18
2022-10-14T05:25:24.388Z,11.25
2022-10-14T05:27:53.720Z,12.63
2022-10-14T05:30:21.451Z,12.82
2022-10-14T05:32:49.394Z,11.43
2022-10-14T05:35:33.991Z,12.48
2022-10-14T05:38:05.622Z,12.13
2022-10-14T05:40:35.890Z,10.50
2022-10-14T05:43:05.064Z,12.23
2022-10-14T05:45:33.525Z,12.63
2022-10-14T05:48:02.013Z,12.43
2022-10-14T05:50:29.848Z,13.20
2022-10-14T05:53:01.730Z,12.95
2022-10-14T05:55:29.329Z,13.00
2022-10-14T05:57:57.463Z,12.90
2022-10-14T06:00:27.186Z,10.88
2022-10-14T06:02:57.658Z,10.00
2022-10-14T06:05:25.520Z,9.48
2022-10-14T06:07:53.029Z,9.60
2022-10-14T06:10:20.698Z,10.93
2022-10-14T06:12:48.775Z,10.52
2022-10-14T06:15:16.263Z,11.80
2022-10-14T06:17:44.701Z,10.27
2022-10-14T06:20:12.300Z,9.82
2022-10-14T06:22:39.668Z,10.15
2022-10-14T06:25:07.691Z,11.35
2022-10-14T06:27:35.047Z,10.13
2022-10-14T06:30:02.480Z,10.45
2022-10-14T06:32:30.289Z,10.93
2022-10-14T06:34:58.259Z,10.35
2022-10-14T06:37:25.668Z,12.18
2022-10-14T06:39:53.318Z,12.77
2022-10-14T06:42:20.734Z,12.00
2022-10-14T06:44:48.158Z,12.02
2022-10-14T06:47:15.922Z,13.32
2022-10-14T06:49:43.446Z,13.43
2022-10-14T06:52:10.771Z,12.73
2022-10-14T06:54:39.665Z,14.30
2022-10-14T06:57:07.844Z,16.45
2022-10-14T06:59:35.206Z,17.37
2022-10-14T07:02:03.209Z,18.05
2022-10-14T07:04:30.804Z,18.23
2022-10-14T07:06:58.656Z,18.80
2022-10-14T07:09:26.298Z,20.12
2022-10-14T07:11:53.841Z,19.40
2022-10-14T07:14:21.226Z,19.05
2022-10-14T07:16:48.930Z,18.90
2022-10-14T07:19:16.294Z,15.75
2022-10-14T07:21:45.355Z,15.32
2022-10-14T07:24:13.585Z,15.65
2022-10-14T07:26:41.048Z,15.57
2022-10-14T07:29:08.473Z,15.13
2022-10-14T07:31:36.106Z,15.43
2022-10-14T07:34:03.943Z,15.05
2022-10-14T07:36:31.354Z,15.68
2022-10-14T07:38:59.021Z,14.93
2022-10-14T07:41:26.643Z,16.35
2022-10-14T07:43:57.557Z,16.05
2022-10-14T07:46:34.634Z,14.77
2022-10-14T07:49:17.088Z,15.32
2022-10-14T07:51:45.776Z,15.18
2022-10-14T07:54:16.758Z,14.63
2022-10-14T07:56:44.820Z,14.00
2022-10-14T07:59:12.897Z,14.40
2022-10-14T08:01:40.559Z,13.80
2022-10-14T08:04:10.196Z,13.90
2022-10-14T08:06:37.711Z,14.05
2022-10-14T08:09:05.854Z,14.00
2022-10-14T08:11:33.789Z,14.15
2022-10-14T08:14:01.284Z,12.55
2022-10-14T08:16:31.384Z,11.55
2022-10-14T08:19:01.722Z,11.98
2022-10-14T08:21:29.258Z,13.45
2022-10-14T08:23:56.992Z,11.63
2022-10-14T08:26:40.684Z,11.57
2022-10-14T08:29:11.181Z,13.52
2022-10-14T08:31:38.878Z,13.50
2022-10-14T08:34:06.283Z,12.25
2022-10-14T08:36:33.633Z,13.18
2022-10-14T08:39:01.273Z,13.88
2022-10-14T08:41:45.691Z,13.30
2022-10-14T08:46:54.950Z,11.90
2022-10-14T08:49:46.890Z,12.10
2022-10-14T08:52:18.211Z,11.43
2022-10-14T08:54:49.243Z,12.52
2022-10-14T08:57:22.181Z,12.05
2022-10-14T08:59:49.804Z,11.60
2022-10-14T09:02:28.329Z,11.52
2022-10-14T09:04:57.000Z,12.30
2022-10-14T09:07:24.892Z,11.07
2022-10-14T09:09:57.015Z,10.98
2022-10-14T09:12:28.437Z,12.88
2022-10-14T09:15:20.780Z,11.25
2022-10-14T09:17:57.354Z,11.60
2022-10-14T09:20:25.324Z,11.95
2022-10-14T09:22:58.580Z,12.02
2022-10-14T09:25:26.041Z,11.40
2022-10-14T09:27:53.738Z,12.73
2022-10-14T09:30:21.165Z,12.95
2022-10-14T09:32:53.623Z,11.82
2022-10-14T09:35:33.844Z,12.70
2022-10-14T09:38:01.305Z,12.45
2022-10-14T09:40:43.900Z,11.23
2022-10-14T09:43:11.186Z,11.12
2022-10-14T09:45:57.870Z,11.73
2022-10-14T09:48:55.091Z,11.43
2022-10-14T09:51:28.603Z,11.73
2022-10-14T09:53:57.716Z,12.40
2022-10-14T09:56:31.771Z,12.10
2022-10-14T09:58:59.212Z,12.15
2022-10-14T10:01:29.106Z,12.05
2022-10-14T10:03:57.289Z,12.35
2022-10-14T10:06:26.783Z,12.90
2022-10-14T10:08:55.784Z,12.32
2022-10-14T10:11:37.777Z,12.20
2022-10-14T10:14:35.358Z,12.50
2022-10-14T10:17:09.767Z,11.82
2022-10-14T10:19:38.591Z,11.57
2022-10-14T10:22:28.310Z,12.65
2022-10-14T10:25:01.414Z,12.65
2022-10-14T10:27:36.635Z,13.20
2022-10-14T10:30:22.446Z,12.60
2022-10-14T10:33:26.323Z,13.38
2022-10-14T10:39:05.657Z,11.27
2022-10-14T10:41:58.620Z,12.07
2022-10-14T10:44:30.394Z,12.10
2022-10-14T10:47:08.745Z,11.55
2022-10-14T10:50:05.041Z,11.65
2022-10-14T10:52:57.477Z,10.25
2022-10-14T10:56:13.587Z,11.60
2022-10-14T10:58:47.867Z,11.02
2022-10-14T11:01:44.840Z,11.10
2022-10-14T11:04:27.423Z,12.07
2022-10-14T11:07:33.787Z,12.82
2022-10-14T11:10:29.317Z,12.05
2022-10-14T11:13:35.477Z,12.50
2022-10-14T11:16:10.752Z,11.15
2022-10-14T11:18:50.367Z,11.93
2022-10-14T11:21:31.150Z,12.75
2022-10-14T11:24:23.795Z,11.57
2022-10-14T11:26:59.909Z,11.73
2022-10-14T11:29:49.364Z,10.65
2022-10-14T11:32:47.786Z,10.60
2022-10-14T11:35:37.839Z,11.82
2022-10-14T11:38:13.762Z,10.40
2022-10-14T11:41:00.362Z,10.63
2022-10-14T11:43:42.052Z,11.02
2022-10-14T11:46:13.208Z,11.60
2022-10-14T11:48:51.761Z,11.23
2022-10-14T11:51:24.553Z,11.70
2022-10-14T11:54:00.182Z,11.70
2022-10-14T11:56:43.060Z,12.57
2022-10-14T11:59:19.170Z,11.82
2022-10-14T12:01:48.373Z,13.57
2022-10-14T12:04:22.580Z,13.00
2022-10-14T12:06:55.798Z,13.45
2022-10-14T12:09:39.378Z,13.60
2022-10-14T12:12:09.179Z,13.00
2022-10-14T12:14:44.047Z,13.90
2022-10-14T12:17:34.489Z,14.00
2022-10-14T12:20:19.977Z,14.05
2022-10-14T12:22:48.312Z,13.70
2022-10-14T12:25:18.519Z,13.02
2022-10-14T12:27:46.050Z,14.23
2022-10-14T12:30:39.399Z,14.23
2022-10-14T12:33:09.785Z,14.45
2022-10-14T12:36:01.112Z,13.02
2022-10-14T12:38:30.131Z,13.57
2022-10-14T12:41:32.745Z,14.48
2022-10-14T12:44:03.384Z,14.48
2022-10-14T12:46:31.492Z,13.20
2022-10-14T12:49:00.418Z,13.40
2022-10-14T12:51:28.054Z,13.88
2022-10-14T12:54:06.257Z,12.90
2022-10-14T12:56:38.332Z,13.77
2022-10-14T12:59:08.291Z,12.90
2022-10-14T13:01:37.998Z,13.95
2022-10-14T13:04:07.635Z,12.85
2022-10-14T13:06:38.257Z,15.10
2022-10-14T13:09:11.900Z,14.77
2022-10-14T13:11:41.328Z,14.73
2022-10-14T13:14:26.044Z,15.77
2022-10-14T13:16:53.257Z,15.75
2022-10-14T13:19:47.230Z,15.45
2022-10-14T13:22:33.158Z,15.00
2022-10-14T13:25:14.994Z,15.68
2022-10-14T13:27:54.480Z,14.48
2022-10-14T13:30:39.665Z,14.13
2022-10-14T13:33:13.367Z,14.82
2022-10-14T13:35:50.008Z,14.15
2022-10-14T13:38:19.201Z,14.93
2022-10-14T13:40:52.215Z,15.35
2022-10-14T13:43:36.412Z,15.18
2022-10-14T13:46:26.786Z,15.52
2022-10-14T13:48:59.449Z,15.43
2022-10-14T13:51:51.166Z,15.98
2022-10-14T13:54:25.972Z,15.48
2022-10-14T13:57:38.697Z,15.75
2022-10-14T14:00:22.543Z,14.65
2022-10-14T14:02:39.876Z,14.63
2022-10-14T14:05:15.192Z,15.60
2022-10-14T14:10:31.767Z,15.43
2022-10-14T14:13:03.188Z,16.08
2022-10-14T14:15:30.572Z,14.57
2022-10-14T14:17:58.193Z,15.52
2022-10-14T14:20:33.947Z,15.45
2022-10-14T14:23:01.656Z,14.50
2022-10-14T14:25:43.258Z,16.02
2022-10-14T14:28:15.480Z,15.73
2022-10-14T14:30:54.322Z,15.20
2022-10-14T14:33:28.717Z,15.40
2022-10-14T14:35:59.039Z,16.13
2022-10-14T14:38:32.490Z,15.23
2022-10-14T14:41:19.739Z,15.25
2022-10-14T14:44:01.899Z,15.02
2022-10-14T14:46:38.009Z,16.52
2022-10-14T14:49:07.365Z,15.35
2022-10-14T14:51:39.711Z,15.15
2022-10-14T14:54:16.755Z,15.73
2022-10-14T14:56:49.939Z,15.23
2022-10-14T14:59:22.748Z,14.03
2022-10-14T15:01:50.203Z,15.52
2022-10-14T15:04:19.538Z,15.27
2022-10-14T15:07:00.616Z,14.85
2022-10-14T15:09:46.821Z,14.05
2022-10-14T15:12:31.515Z,13.48
2022-10-14T15:15:01.095Z,14.57
2022-10-14T15:17:46.066Z,14.55
2022-10-14T15:20:28.772Z,15.57
2022-10-14T15:22:56.151Z,14.27
2022-10-14T15:25:29.234Z,15.65
2022-10-14T15:27:58.800Z,16.10
2022-10-14T15:30:40.091Z,15.45
2022-10-14T15:33:16.198Z,16.95
2022-10-14T15:35:45.616Z,18.23
2022-10-14T15:38:16.371Z,20.83
2022-10-14T15:40:47.800Z,28.23
2022-10-14T15:43:20.624Z,25.42
2022-10-14T15:46:12.828Z,21.17
2022-10-14T15:48:42.148Z,20.23
2022-10-14T15:51:15.799Z,25.17
2022-10-14T15:53:43.201Z,29.58
2022-10-14T15:56:10.859Z,28.27
2022-10-14T15:58:38.260Z,21.45
2022-10-14T16:01:08.916Z,21.75
2022-10-14T16:03:40.896Z,21.60
2022-10-14T16:06:10.650Z,24.02
2022-10-14T16:08:39.258Z,23.92
2022-10-14T16:11:14.564Z,23.92
2022-10-14T16:16:10.229Z,25.35
2022-10-14T16:18:37.585Z,22.77
2022-10-14T16:21:05.329Z,20.62
2022-10-14T16:23:34.445Z,22.48
2022-10-14T16:26:02.051Z,22.95
2022-10-14T16:28:29.747Z,23.50
2022-10-14T16:30:59.029Z,24.90
2022-10-14T16:33:26.402Z,24.10
2022-10-14T16:35:55.973Z,24.73
2022-10-14T16:38:24.272Z,24.83
2022-10-14T16:40:59.653Z,25.88
2022-10-14T16:43:28.490Z,25.48
2022-10-14T16:46:00.575Z,24.73
2022-10-14T16:48:29.316Z,28.35
2022-10-14T16:50:56.677Z,32.03
2022-10-14T16:53:40.533Z,29.65
2022-10-14T16:56:30.430Z,35.22
2022-10-14T16:58:58.530Z,63.58
2022-10-14T17:01:26.302Z,60.20
2022-10-14T17:03:55.676Z,57.42
2022-10-14T17:06:26.555Z,54.45
2022-10-14T17:08:54.749Z,51.80
2022-10-14T17:11:22.651Z,49.30
2022-10-14T17:13:54.268Z,41.17
2022-10-14T17:16:22.336Z,36.67
2022-10-14T17:18:49.989Z,42.10
2022-10-14T17:21:17.440Z,42.28
2022-10-14T17:23:45.198Z,45.42
2022-10-14T17:26:21.090Z,39.60
2022-10-14T17:28:48.880Z,39.35
2022-10-14T17:31:20.569Z,42.50
2022-10-14T17:33:47.898Z,40.92
2022-10-14T17:36:20.844Z,41.13
2022-10-14T17:38:50.735Z,46.70
2022-10-14T17:41:19.542Z,47.03
2022-10-14T17:43:49.870Z,40.50
2022-10-14T17:46:20.813Z,33.65
2022-10-14T17:48:51.385Z,35.15
2022-10-14T17:51:23.430Z,30.77
2022-10-14T17:54:02.600Z,29.70
2022-10-14T17:56:31.442Z,32.33
2022-10-14T17:59:00.784Z,29.95
2022-10-14T18:01:37.090Z,26.90
2022-10-14T18:04:12.111Z,27.15
2022-10-14T18:06:40.165Z,27.10
2022-10-14T18:09:09.381Z,31.33
2022-10-14T18:12:07.204Z,31.85
2022-10-14T18:14:28.706Z,31.95
2022-10-14T18:16:56.524Z,48.58
2022-10-14T18:19:24.308Z,39.78
2022-10-14T18:21:53.342Z,41.65
2022-10-14T18:24:21.470Z,45.15
2022-10-14T18:26:53.978Z,49.22
2022-10-14T18:29:21.784Z,80.55
2022-10-14T18:34:24.973Z,115.53
2022-10-14T18:36:52.780Z,57.20
2022-10-14T18:39:22.015Z,54.40
2022-10-14T18:41:49.866Z,36.17
2022-10-14T18:44:17.366Z,35.42
2022-10-14T18:46:44.790Z,44.03
2022-10-14T18:49:13.167Z,30.88
2022-10-14T18:51:41.268Z,27.60
2022-10-14T18:54:15.726Z,26.87
2022-10-14T18:56:44.506Z,27.30
2022-10-14T18:59:23.543Z,27.92
2022-10-14T19:01:55.530Z,29.37
2022-10-14T19:04:25.406Z,27.17
2022-10-14T19:06:53.687Z,31.60
2022-10-14T19:09:24.822Z,36.25
2022-10-14T19:11:52.761Z,34.17
2022-10-14T19:14:22.618Z,30.62
2022-10-14T19:16:50.433Z,39.28
2022-10-14T19:19:19.910Z,45.78
2022-10-14T19:21:54.188Z,36.67
2022-10-14T19:24:22.378Z,32.03
2022-10-14T19:26:50.419Z,29.23
2022-10-14T19:29:18.307Z,29.92
2022-10-14T19:31:46.054Z,27.52
2022-10-14T19:34:15.374Z,29.95
2022-10-14T19:36:44.163Z,26.45
2022-10-14T19:39:14.852Z,26.58
2022-10-14T19:41:43.231Z,22.95
2022-10-14T19:44:11.863Z,23.45
2022-10-14T19:46:40.346Z,22.83
2022-10-14T19:49:08.453Z,22.08
2022-10-14T19:51:36.514Z,24.63
2022-10-14T19:54:04.394Z,27.50
2022-10-14T19:56:31.763Z,31.60
2022-10-14T19:58:59.845Z,31.37
2022-10-14T20:01:29.228Z,39.47
2022-10-14T20:04:01.328Z,39.75
2022-10-14T20:06:35.567Z,39.78
2022-10-14T20:09:03.700Z,37.50
2022-10-14T20:11:31.327Z,35.17
2022-10-14T20:13:58.680Z,33.47
2022-10-14T20:16:27.171Z,31.55
2022-10-14T20:18:55.499Z,29.37
2022-10-14T20:21:22.948Z,25.67
2022-10-14T20:23:50.638Z,25.90
2022-10-14T20:26:20.960Z,29.52
2022-10-14T20:28:49.509Z,30.85
2022-10-14T20:31:20.382Z,30.98
2022-10-14T20:33:48.434Z,31.67
2022-10-14T20:36:18.090Z,31.08
2022-10-14T20:38:45.913Z,31.50
2022-10-14T20:41:24.990Z,27.83
2022-10-14T20:43:54.297Z,25.58
2022-10-14T20:46:22.696Z,25.90
2022-10-14T20:48:56.581Z,25.40
2022-10-14T20:51:24.480Z,25.83
2022-10-14T20:54:00.468Z,25.15
2022-10-14T20:56:31.344Z,24.58
2022-10-14T20:58:59.889Z,26.05
2022-10-14T21:01:28.471Z,23.12
2022-10-14T21:03:56.503Z,26.10
2022-10-14T21:06:24.667Z,83.87
2022-10-14T21:08:52.470Z,55.08
2022-10-14T21:11:22.344Z,60.58
2022-10-14T21:13:52.105Z,26.33
2022-10-14T21:16:25.448Z,22.77
2022-10-14T21:19:11.527Z,24.12
2022-10-14T21:21:41.341Z,27.27
2022-10-14T21:24:12.209Z,31.58
2022-10-14T21:26:39.894Z,29.27
2022-10-14T21:29:07.345Z,33.15
2022-10-14T21:31:34.737Z,32.83
2022-10-14T21:34:06.197Z,29.80
2022-10-14T21:36:34.760Z,29.42
2022-10-14T21:39:13.625Z,27.73
2022-10-14T21:41:41.489Z,25.33
2022-10-14T21:44:11.271Z,24.20
2022-10-14T21:46:38.601Z,23.42
2022-10-14T21:49:06.217Z,29.70
2022-10-14T21:51:34.023Z,29.30
2022-10-14T21:54:01.537Z,25.77
2022-10-14T21:56:29.484Z,27.90
2022-10-14T21:58:57.110Z,29.90
2022-10-14T22:01:29.037Z,25.55
2022-10-14T22:03:58.933Z,28.80
2022-10-14T22:06:27.496Z,27.65
2022-10-14T22:08:57.941Z,27.00
2022-10-14T22:11:30.733Z,26.37
2022-10-14T22:14:00.270Z,25.17
2022-10-14T22:16:29.212Z,25.20
2022-10-14T22:18:59.012Z,23.48
2022-10-14T22:21:27.547Z,22.33
2022-10-14T22:23:55.278Z,23.25
2022-10-14T22:26:24.359Z,23.60
2022-10-14T22:29:04.306Z,22.83
2022-10-14T22:31:33.037Z,24.40
2022-10-14T22:34:01.887Z,24.48
2022-10-14T22:36:30.499Z,22.05
2022-10-14T22:39:00.091Z,23.20
2022-10-14T22:41:33.900Z,23.12
2022-10-14T22:44:04.353Z,27.10
2022-10-14T22:46:33.708Z,28.23
2022-10-14T22:49:02.045Z,33.00
2022-10-14T22:51:31.959Z,36.03
2022-10-14T22:53:59.615Z,32.75
2022-10-14T22:56:28.542Z,38.38
2022-10-14T22:59:01.163Z,42.97
2022-10-14T23:01:29.963Z,41.80
2022-10-14T23:03:58.558Z,36.08
2022-10-14T23:06:26.442Z,34.83
2022-10-14T23:08:54.447Z,33.55
2022-10-14T23:11:23.732Z,27.75
2022-10-14T23:13:51.642Z,29.90
2022-10-14T23:16:21.113Z,26.37
2022-10-14T23:18:48.984Z,24.20
2022-10-14T23:21:22.206Z,23.50
2022-10-14T23:23:51.031Z,24.52
2022-10-14T23:26:21.398Z,25.33
2022-10-14T23:28:49.988Z,27.35
2022-10-14T23:31:20.458Z,26.00
2022-10-14T23:33:49.117Z,29.80
2022-10-14T23:36:16.539Z,24.98
2022-10-14T23:38:44.194Z,26.17
2022-10-14T23:41:12.790Z,24.33
2022-10-14T23:43:40.895Z,24.35
2022-10-14T23:46:08.785Z,26.40
2022-10-14T23:48:36.607Z,24.00
2022-10-14T23:51:04.359Z,26.58
2022-10-14T23:53:32.358Z,27.75
2022-10-14T23:56:00.271Z,26.48
2022-10-14T23:58:29.644Z,29.02
